sensor_id;sensor_type;location;lat;lon;timestamp;P1;P2;P0
72031;PMS5003;49185;42.320;23.198;2023-04-01T00:01:55;22.25;21.00;12.50
72031;PMS5003;49185;42.320;23.198;2023-04-01T00:04:21;21.33;18.00;8.00
72031;PMS5003;49185;42.320;23.198;2023-04-01T00:06:46;39.00;31.00;17.00
72031;PMS5003;49185;42.320;23.198;2023-04-01T00:09:12;40.67;32.00;19.00
72031;PMS5003;49185;42.320;23.198;2023-04-01T00:11:37;30.00;25.33;15.33
72031;PMS5003;49185;42.320;23.198;2023-04-01T00:14:03;27.50;24.50;13.00
72031;PMS5003;49185;42.320;23.198;2023-04-01T00:16:30;42.00;33.25;19.50
72031;PMS5003;49185;42.320;23.198;2023-04-01T00:18:55;38.50;31.00;19.00
72031;PMS5003;49185;42.320;23.198;2023-04-01T00:21:21;25.00;24.00;16.00
72031;PMS5003;49185;42.320;23.198;2023-04-01T00:23:48;18.00;17.00;8.00
72031;PMS5003;49185;42.320;23.198;2023-04-01T00:26:14;12.00;10.75;3.00
72031;PMS5003;49185;42.320;23.198;2023-04-01T00:28:40;6.00;6.00;1.00
72031;PMS5003;49185;42.320;23.198;2023-04-01T00:31:06;7.00;6.00;1.00
72031;PMS5003;49185;42.320;23.198;2023-04-01T00:33:33;3.75;3.00;1.00
72031;PMS5003;49185;42.320;23.198;2023-04-01T00:36:05;3.00;3.00;1.00
72031;PMS5003;49185;42.320;23.198;2023-04-01T00:38:32;9.25;9.25;4.00
72031;PMS5003;49185;42.320;23.198;2023-04-01T00:40:57;21.67;18.33;8.33
72031;PMS5003;49185;42.320;23.198;2023-04-01T00:43:23;24.00;21.67;9.33
72031;PMS5003;49185;42.320;23.198;2023-04-01T00:45:48;27.67;23.00;8.00
72031;PMS5003;49185;42.320;23.198;2023-04-01T00:48:16;19.50;17.00;6.00
72031;PMS5003;49185;42.320;23.198;2023-04-01T00:50:45;14.25;11.50;3.75
72031;PMS5003;49185;42.320;23.198;2023-04-01T00:53:33;18.25;15.50;6.25
72031;PMS5003;49185;42.320;23.198;2023-04-01T00:56:07;15.00;15.00;3.50
72031;PMS5003;49185;42.320;23.198;2023-04-01T00:58:38;5.75;5.00;1.00
72031;PMS5003;49185;42.320;23.198;2023-04-01T01:01:08;3.00;3.00;1.00
72031;PMS5003;49185;42.320;23.198;2023-04-01T01:03:34;3.00;3.00;1.00
72031;PMS5003;49185;42.320;23.198;2023-04-01T01:08:47;4.75;4.00;0.50
72031;PMS5003;49185;42.320;23.198;2023-04-01T01:11:17;7.50;6.50;1.50
72031;PMS5003;49185;42.320;23.198;2023-04-01T01:13:58;6.00;4.00;2.00
72031;PMS5003;49185;42.320;23.198;2023-04-01T01:16:31;3.25;3.25;1.00
72031;PMS5003;49185;42.320;23.198;2023-04-01T01:27:20;4.00;4.00;0.00
72031;PMS5003;49185;42.320;23.198;2023-04-01T01:37:51;3.25;3.25;0.00
72031;PMS5003;49185;42.320;23.198;2023-04-01T01:40:20;4.50;3.25;0.00
72031;PMS5003;49185;42.320;23.198;2023-04-01T01:42:48;4.00;3.75;1.00
72031;PMS5003;49185;42.320;23.198;2023-04-01T01:45:19;2.00;2.00;0.00
72031;PMS5003;49185;42.320;23.198;2023-04-01T01:47:48;8.00;7.00;4.00
72031;PMS5003;49185;42.320;23.198;2023-04-01T01:50:16;5.50;4.00;3.00
72031;PMS5003;49185;42.320;23.198;2023-04-01T01:52:44;5.00;3.75;2.00
72031;PMS5003;49185;42.320;23.198;2023-04-01T01:55:28;5.00;4.00;2.00
72031;PMS5003;49185;42.320;23.198;2023-04-01T01:58:00;4.00;4.00;1.00
72031;PMS5003;49185;42.320;23.198;2023-04-01T02:00:33;5.75;4.75;1.00
72031;PMS5003;49185;42.320;23.198;2023-04-01T02:02:59;4.00;4.00;2.00
72031;PMS5003;49185;42.320;23.198;2023-04-01T02:05:26;6.00;5.25;1.00
72031;PMS5003;49185;42.320;23.198;2023-04-01T02:07:55;6.00;6.00;1.00
72031;PMS5003;49185;42.320;23.198;2023-04-01T02:10:30;6.00;6.00;2.00
72031;PMS5003;49185;42.320;23.198;2023-04-01T02:13:01;8.75;7.00;2.00
72031;PMS5003;49185;42.320;23.198;2023-04-01T02:15:33;4.00;4.00;1.00
72031;PMS5003;49185;42.320;23.198;2023-04-01T02:18:06;2.25;2.00;2.00
72031;PMS5003;49185;42.320;23.198;2023-04-01T02:20:32;4.00;3.00;1.00
72031;PMS5003;49185;42.320;23.198;2023-04-01T02:23:00;8.00;7.50;3.00
72031;PMS5003;49185;42.320;23.198;2023-04-01T02:25:28;13.50;11.75;7.50
72031;PMS5003;49185;42.320;23.198;2023-04-01T02:27:58;20.75;17.75;8.00
72031;PMS5003;49185;42.320;23.198;2023-04-01T02:30:26;19.50;18.00;6.00
72031;PMS5003;49185;42.320;23.198;2023-04-01T02:32:54;18.00;17.00;6.50
72031;PMS5003;49185;42.320;23.198;2023-04-01T02:35:22;20.50;19.00;9.00
72031;PMS5003;49185;42.320;23.198;2023-04-01T02:37:48;21.25;19.75;8.00
72031;PMS5003;49185;42.320;23.198;2023-04-01T02:40:16;14.50;13.50;6.00
72031;PMS5003;49185;42.320;23.198;2023-04-01T02:42:42;12.50;10.75;5.00
72031;PMS5003;49185;42.320;23.198;2023-04-01T02:45:08;13.00;12.00;4.33
72031;PMS5003;49185;42.320;23.198;2023-04-01T02:47:34;8.00;7.00;5.00
72031;PMS5003;49185;42.320;23.198;2023-04-01T02:49:59;9.67;8.00;3.00
72031;PMS5003;49185;42.320;23.198;2023-04-01T02:52:25;19.67;18.33;9.33
72031;PMS5003;49185;42.320;23.198;2023-04-01T02:54:51;13.00;11.25;4.75
72031;PMS5003;49185;42.320;23.198;2023-04-01T02:57:17;6.00;5.50;2.00
72031;PMS5003;49185;42.320;23.198;2023-04-01T02:59:43;5.00;5.00;2.00
72031;PMS5003;49185;42.320;23.198;2023-04-01T03:02:08;3.00;3.00;1.00
72031;PMS5003;49185;42.320;23.198;2023-04-01T03:04:34;3.00;3.00;0.00
72031;PMS5003;49185;42.320;23.198;2023-04-01T03:07:00;4.00;3.00;1.00
72031;PMS5003;49185;42.320;23.198;2023-04-01T03:09:25;6.67;6.67;2.00
72031;PMS5003;49185;42.320;23.198;2023-04-01T03:11:51;7.00;7.00;1.00
72031;PMS5003;49185;42.320;23.198;2023-04-01T03:14:16;6.00;6.00;2.00
72031;PMS5003;49185;42.320;23.198;2023-04-01T03:16:41;4.33;4.33;1.00
72031;PMS5003;49185;42.320;23.198;2023-04-01T03:19:07;7.00;6.67;2.00
72031;PMS5003;49185;42.320;23.198;2023-04-01T03:21:32;7.00;6.33;2.00
72031;PMS5003;49185;42.320;23.198;2023-04-01T03:23:58;7.67;7.00;3.00
72031;PMS5003;49185;42.320;23.198;2023-04-01T03:26:23;14.67;11.33;6.33
72031;PMS5003;49185;42.320;23.198;2023-04-01T03:28:49;31.50;27.75;16.75
72031;PMS5003;49185;42.320;23.198;2023-04-01T03:31:15;33.00;29.00;20.00
72031;PMS5003;49185;42.320;23.198;2023-04-01T03:33:40;27.33;25.00;16.33
72031;PMS5003;49185;42.320;23.198;2023-04-01T03:36:06;30.00;26.25;16.50
72031;PMS5003;49185;42.320;23.198;2023-04-01T03:38:32;29.00;27.00;16.67
72031;PMS5003;49185;42.320;23.198;2023-04-01T03:41:01;27.50;24.75;17.00
72031;PMS5003;49185;42.320;23.198;2023-04-01T03:43:27;24.00;23.00;15.00
72031;PMS5003;49185;42.320;23.198;2023-04-01T03:45:52;29.33;26.33;17.33
72031;PMS5003;49185;42.320;23.198;2023-04-01T03:48:19;23.50;21.00;13.75
72031;PMS5003;49185;42.320;23.198;2023-04-01T03:50:44;16.33;14.33;7.00
72031;PMS5003;49185;42.320;23.198;2023-04-01T03:53:10;12.00;11.75;4.75
72031;PMS5003;49185;42.320;23.198;2023-04-01T03:55:36;14.75;12.00;5.75
72031;PMS5003;49185;42.320;23.198;2023-04-01T03:58:02;14.00;13.00;7.00
72031;PMS5003;49185;42.320;23.198;2023-04-01T04:00:29;11.00;8.75;6.00
72031;PMS5003;49185;42.320;23.198;2023-04-01T04:02:55;7.25;6.00;4.00
72031;PMS5003;49185;42.320;23.198;2023-04-01T04:05:22;9.00;9.00;3.00
72031;PMS5003;49185;42.320;23.198;2023-04-01T04:07:48;4.75;4.75;2.00
72031;PMS5003;49185;42.320;23.198;2023-04-01T04:10:14;5.75;4.00;1.25
72031;PMS5003;49185;42.320;23.198;2023-04-01T04:12:39;4.00;4.00;0.00
72031;PMS5003;49185;42.320;23.198;2023-04-01T04:15:05;10.33;9.00;3.67
72031;PMS5003;49185;42.320;23.198;2023-04-01T04:17:31;18.50;17.00;9.50
72031;PMS5003;49185;42.320;23.198;2023-04-01T04:19:57;38.67;31.67;18.33
72031;PMS5003;49185;42.320;23.198;2023-04-01T04:22:22;40.00;32.33;20.33
72031;PMS5003;49185;42.320;23.198;2023-04-01T04:24:47;36.33;30.00;18.33
72031;PMS5003;49185;42.320;23.198;2023-04-01T04:27:13;28.33;26.33;17.00
72031;PMS5003;49185;42.320;23.198;2023-04-01T04:29:39;28.25;25.25;15.00
72031;PMS5003;49185;42.320;23.198;2023-04-01T04:32:05;25.67;24.00;14.33
72031;PMS5003;49185;42.320;23.198;2023-04-01T04:34:30;26.00;21.00;13.00
72031;PMS5003;49185;42.320;23.198;2023-04-01T04:36:55;20.00;17.00;10.00
72031;PMS5003;49185;42.320;23.198;2023-04-01T04:39:21;19.67;17.00;9.33
72031;PMS5003;49185;42.320;23.198;2023-04-01T04:41:46;26.33;23.67;14.33
72031;PMS5003;49185;42.320;23.198;2023-04-01T04:44:12;41.67;34.00;22.33
72031;PMS5003;49185;42.320;23.198;2023-04-01T04:46:37;35.00;31.00;20.00
72031;PMS5003;49185;42.320;23.198;2023-04-01T04:49:02;35.67;31.33;20.00
72031;PMS5003;49185;42.320;23.198;2023-04-01T04:51:28;133.00;125.67;77.33
72031;PMS5003;49185;42.320;23.198;2023-04-01T04:53:53;125.67;119.33;74.67
72031;PMS5003;49185;42.320;23.198;2023-04-01T04:56:19;63.67;53.33;34.00
72031;PMS5003;49185;42.320;23.198;2023-04-01T04:58:46;39.25;33.00;20.75
72031;PMS5003;49185;42.320;23.198;2023-04-01T05:01:12;40.00;32.67;20.00
72031;PMS5003;49185;42.320;23.198;2023-04-01T05:03:39;33.50;27.75;17.00
72031;PMS5003;49185;42.320;23.198;2023-04-01T05:06:05;22.00;20.00;12.25
72031;PMS5003;49185;42.320;23.198;2023-04-01T05:08:32;18.00;17.00;7.50
72031;PMS5003;49185;42.320;23.198;2023-04-01T05:10:58;16.67;14.00;6.67
72031;PMS5003;49185;42.320;23.198;2023-04-01T05:13:24;17.50;15.75;9.00
72031;PMS5003;49185;42.320;23.198;2023-04-01T05:15:49;21.33;19.00;12.00
72031;PMS5003;49185;42.320;23.198;2023-04-01T05:18:15;18.00;16.00;8.00
72031;PMS5003;49185;42.320;23.198;2023-04-01T05:20:45;16.00;13.00;5.00
72031;PMS5003;49185;42.320;23.198;2023-04-01T05:23:14;9.75;8.25;3.75
72031;PMS5003;49185;42.320;23.198;2023-04-01T05:25:40;9.00;8.00;4.00
72031;PMS5003;49185;42.320;23.198;2023-04-01T05:28:05;5.00;5.00;3.00
72031;PMS5003;49185;42.320;23.198;2023-04-01T05:30:30;6.33;6.33;3.00
72031;PMS5003;49185;42.320;23.198;2023-04-01T05:32:56;6.00;6.00;2.00
72031;PMS5003;49185;42.320;23.198;2023-04-01T05:35:21;6.00;6.00;2.00
72031;PMS5003;49185;42.320;23.198;2023-04-01T05:37:48;5.00;5.00;1.00
72031;PMS5003;49185;42.320;23.198;2023-04-01T05:40:13;5.67;5.00;1.00
72031;PMS5003;49185;42.320;23.198;2023-04-01T05:42:38;7.67;7.33;3.00
72031;PMS5003;49185;42.320;23.198;2023-04-01T05:45:04;7.00;6.00;2.00
72031;PMS5003;49185;42.320;23.198;2023-04-01T05:47:30;7.00;5.50;1.00
72031;PMS5003;49185;42.320;23.198;2023-04-01T05:49:56;6.00;5.00;2.00
72031;PMS5003;49185;42.320;23.198;2023-04-01T05:52:22;3.25;3.25;1.00
72031;PMS5003;49185;42.320;23.198;2023-04-01T05:54:47;5.33;5.00;2.00
72031;PMS5003;49185;42.320;23.198;2023-04-01T05:57:13;5.00;4.33;3.00
72031;PMS5003;49185;42.320;23.198;2023-04-01T05:59:38;7.00;6.00;2.00
72031;PMS5003;49185;42.320;23.198;2023-04-01T06:02:04;7.33;7.00;3.00
72031;PMS5003;49185;42.320;23.198;2023-04-01T06:04:32;5.00;4.67;2.00
72031;PMS5003;49185;42.320;23.198;2023-04-01T06:07:05;5.00;5.00;2.00
72031;PMS5003;49185;42.320;23.198;2023-04-01T06:09:36;4.00;4.00;2.00
72031;PMS5003;49185;42.320;23.198;2023-04-01T06:22:31;8.25;7.00;1.75
72031;PMS5003;49185;42.320;23.198;2023-04-01T06:25:16;8.50;6.50;3.00
72031;PMS5003;49185;42.320;23.198;2023-04-01T06:33:01;4.00;4.00;2.00
72031;PMS5003;49185;42.320;23.198;2023-04-01T06:35:43;5.00;5.00;2.00
72031;PMS5003;49185;42.320;23.198;2023-04-01T06:38:33;4.75;3.00;1.00
72031;PMS5003;49185;42.320;23.198;2023-04-01T06:46:45;7.00;6.33;3.33
72031;PMS5003;49185;42.320;23.198;2023-04-01T06:51:51;14.67;12.00;5.67
72031;PMS5003;49185;42.320;23.198;2023-04-01T06:54:28;8.00;5.00;3.00
72031;PMS5003;49185;42.320;23.198;2023-04-01T06:57:20;4.50;3.00;1.00
72031;PMS5003;49185;42.320;23.198;2023-04-01T06:59:54;4.75;3.00;1.00
72031;PMS5003;49185;42.320;23.198;2023-04-01T07:02:24;4.25;3.00;1.25
72031;PMS5003;49185;42.320;23.198;2023-04-01T07:04:57;4.00;4.00;1.00
72031;PMS5003;49185;42.320;23.198;2023-04-01T07:07:27;3.75;3.75;1.00
72031;PMS5003;49185;42.320;23.198;2023-04-01T07:09:55;4.50;4.50;1.00
72031;PMS5003;49185;42.320;23.198;2023-04-01T07:14:55;6.00;5.00;2.00
72031;PMS5003;49185;42.320;23.198;2023-04-01T07:17:25;9.00;8.25;2.75
72031;PMS5003;49185;42.320;23.198;2023-04-01T07:22:39;8.00;8.00;3.00
72031;PMS5003;49185;42.320;23.198;2023-04-01T07:25:12;6.00;6.00;2.00
72031;PMS5003;49185;42.320;23.198;2023-04-01T07:27:38;7.00;6.75;2.00
72031;PMS5003;49185;42.320;23.198;2023-04-01T07:30:12;7.00;5.00;1.00
72031;PMS5003;49185;42.320;23.198;2023-04-01T07:35:28;7.00;7.00;3.25
72031;PMS5003;49185;42.320;23.198;2023-04-01T07:52:00;7.00;7.00;3.00
72031;PMS5003;49185;42.320;23.198;2023-04-01T07:59:58;8.00;7.25;2.00
72031;PMS5003;49185;42.320;23.198;2023-04-01T08:05:15;14.00;11.00;5.00
72031;PMS5003;49185;42.320;23.198;2023-04-01T08:15:42;5.00;5.00;2.00
72031;PMS5003;49185;42.320;23.198;2023-04-01T08:18:40;6.50;6.00;3.00
72031;PMS5003;49185;42.320;23.198;2023-04-01T08:21:19;5.00;5.00;3.00
72031;PMS5003;49185;42.320;23.198;2023-04-01T08:23:52;4.00;3.50;2.00
72031;PMS5003;49185;42.320;23.198;2023-04-01T08:29:08;4.00;4.00;0.00
72031;PMS5003;49185;42.320;23.198;2023-04-01T08:31:45;5.00;4.00;0.00
72031;PMS5003;49185;42.320;23.198;2023-04-01T08:34:28;5.00;4.00;0.00
72031;PMS5003;49185;42.320;23.198;2023-04-01T08:37:11;3.00;3.00;0.00
72031;PMS5003;49185;42.320;23.198;2023-04-01T08:39:44;3.00;3.00;0.00
72031;PMS5003;49185;42.320;23.198;2023-04-01T08:42:23;3.00;3.00;0.00
72031;PMS5003;49185;42.320;23.198;2023-04-01T09:04:28;3.00;3.00;1.00
72031;PMS5003;49185;42.320;23.198;2023-04-01T09:30:06;4.00;2.00;0.00
72031;PMS5003;49185;42.320;23.198;2023-04-01T09:37:51;4.00;4.00;0.00
72031;PMS5003;49185;42.320;23.198;2023-04-01T09:46:10;5.00;5.00;3.00
72031;PMS5003;49185;42.320;23.198;2023-04-01T10:22:29;2.25;1.00;0.00
72031;PMS5003;49185;42.320;23.198;2023-04-01T10:30:36;2.00;2.00;0.00
72031;PMS5003;49185;42.320;23.198;2023-04-01T10:39:34;0.00;0.00;0.00
72031;PMS5003;49185;42.320;23.198;2023-04-01T11:18:29;0.00;0.00;0.00
72031;PMS5003;49185;42.320;23.198;2023-04-01T11:26:11;0.00;0.00;0.00
72031;PMS5003;49185;42.320;23.198;2023-04-01T11:34:20;1.00;1.00;0.00
72031;PMS5003;49185;42.320;23.198;2023-04-01T13:24:37;7.00;7.00;2.50
72031;PMS5003;49185;42.320;23.198;2023-04-01T13:27:13;7.00;7.00;4.00
72031;PMS5003;49185;42.320;23.198;2023-04-01T13:35:44;28.50;25.50;15.25
72031;PMS5003;49185;42.320;23.198;2023-04-01T13:41:09;28.25;28.00;18.00
72031;PMS5003;49185;42.320;23.198;2023-04-01T14:03:28;5.00;4.00;1.00
72031;PMS5003;49185;42.320;23.198;2023-04-01T14:12:05;14.00;12.50;7.00
72031;PMS5003;49185;42.320;23.198;2023-04-01T14:23:25;17.00;15.00;7.00
72031;PMS5003;49185;42.320;23.198;2023-04-01T14:51:28;15.00;13.00;7.00
72031;PMS5003;49185;42.320;23.198;2023-04-01T14:56:44;12.75;11.75;4.00
72031;PMS5003;49185;42.320;23.198;2023-04-01T15:01:52;4.00;4.00;2.00
72031;PMS5003;49185;42.320;23.198;2023-04-01T15:12:26;2.00;1.00;0.00
72031;PMS5003;49185;42.320;23.198;2023-04-01T15:17:50;0.00;0.00;0.00
72031;PMS5003;49185;42.320;23.198;2023-04-01T15:41:48;0.00;0.00;0.00
72031;PMS5003;49185;42.320;23.198;2023-04-01T15:47:29;2.00;0.00;0.00
72031;PMS5003;49185;42.320;23.198;2023-04-01T16:02:45;6.67;6.67;0.00
72031;PMS5003;49185;42.320;23.198;2023-04-01T16:22:23;1.00;1.00;0.00
72031;PMS5003;49185;42.320;23.198;2023-04-01T16:28:04;5.25;4.75;0.75
72031;PMS5003;49185;42.320;23.198;2023-04-01T16:41:35;2.50;2.50;0.00
72031;PMS5003;49185;42.320;23.198;2023-04-01T16:46:40;0.00;0.00;0.00
72031;PMS5003;49185;42.320;23.198;2023-04-01T16:51:46;0.00;0.00;0.00
72031;PMS5003;49185;42.320;23.198;2023-04-01T16:54:23;0.00;0.00;0.00
72031;PMS5003;49185;42.320;23.198;2023-04-01T16:57:03;0.00;0.00;0.00
72031;PMS5003;49185;42.320;23.198;2023-04-01T16:59:41;0.00;0.00;0.00
72031;PMS5003;49185;42.320;23.198;2023-04-01T17:02:16;0.00;0.00;0.00
72031;PMS5003;49185;42.320;23.198;2023-04-01T17:04:48;0.50;0.50;0.00
72031;PMS5003;49185;42.320;23.198;2023-04-01T17:07:47;1.50;1.50;0.00
72031;PMS5003;49185;42.320;23.198;2023-04-01T17:13:27;0.25;0.00;0.00
72031;PMS5003;49185;42.320;23.198;2023-04-01T17:21:34;0.00;0.00;0.00
72031;PMS5003;49185;42.320;23.198;2023-04-01T17:29:59;0.00;0.00;0.00
72031;PMS5003;49185;42.320;23.198;2023-04-01T17:32:48;0.50;0.00;0.00
72031;PMS5003;49185;42.320;23.198;2023-04-01T17:35:33;0.00;0.00;0.00
72031;PMS5003;49185;42.320;23.198;2023-04-01T17:40:50;0.00;0.00;0.00
72031;PMS5003;49185;42.320;23.198;2023-04-01T17:49:39;0.00;0.00;0.00
72031;PMS5003;49185;42.320;23.198;2023-04-01T18:00:50;2.50;1.50;0.00
72031;PMS5003;49185;42.320;23.198;2023-04-01T18:06:12;7.75;6.75;2.00
72031;PMS5003;49185;42.320;23.198;2023-04-01T18:09:00;1.75;1.00;0.00
72031;PMS5003;49185;42.320;23.198;2023-04-01T18:15:04;18.00;17.25;10.50
72031;PMS5003;49185;42.320;23.198;2023-04-01T18:20:37;0.00;0.00;0.00
72031;PMS5003;49185;42.320;23.198;2023-04-01T18:23:29;0.00;0.00;0.00
72031;PMS5003;49185;42.320;23.198;2023-04-01T18:26:10;0.00;0.00;0.00
72031;PMS5003;49185;42.320;23.198;2023-04-01T18:29:04;1.50;1.50;0.00
72031;PMS5003;49185;42.320;23.198;2023-04-01T18:31:43;11.00;10.00;5.00
72031;PMS5003;49185;42.320;23.198;2023-04-01T18:37:14;12.00;9.00;5.00
72031;PMS5003;49185;42.320;23.198;2023-04-01T18:39:48;3.00;1.50;0.00
72031;PMS5003;49185;42.320;23.198;2023-04-01T18:45:14;4.50;4.50;2.00
72031;PMS5003;49185;42.320;23.198;2023-04-01T18:55:51;9.00;7.50;3.25
72031;PMS5003;49185;42.320;23.198;2023-04-01T19:06:22;58.00;45.75;30.25
72031;PMS5003;49185;42.320;23.198;2023-04-01T19:08:53;46.75;36.00;24.00
72031;PMS5003;49185;42.320;23.198;2023-04-01T19:11:34;38.00;29.25;20.00
72031;PMS5003;49185;42.320;23.198;2023-04-01T19:20:00;30.00;25.50;17.00
72031;PMS5003;49185;42.320;23.198;2023-04-01T19:33:18;6.00;6.00;2.00
72031;PMS5003;49185;42.320;23.198;2023-04-01T19:38:53;4.50;3.50;1.00
72031;PMS5003;49185;42.320;23.198;2023-04-01T19:44:02;21.00;19.00;14.67
72031;PMS5003;49185;42.320;23.198;2023-04-01T19:47:11;8.75;7.75;5.50
72031;PMS5003;49185;42.320;23.198;2023-04-01T19:52:52;25.75;24.00;14.00
72031;PMS5003;49185;42.320;23.198;2023-04-01T19:55:33;37.50;30.75;19.50
72031;PMS5003;49185;42.320;23.198;2023-04-01T20:00:47;33.00;27.33;17.00
72031;PMS5003;49185;42.320;23.198;2023-04-01T20:04:00;17.75;14.75;7.25
72031;PMS5003;49185;42.320;23.198;2023-04-01T20:09:42;2.25;1.00;0.00
72031;PMS5003;49185;42.320;23.198;2023-04-01T20:11:53;1.50;0.00;0.00
72031;PMS5003;49185;42.320;23.198;2023-04-01T20:14:29;7.00;6.00;2.50
72031;PMS5003;49185;42.320;23.198;2023-04-01T20:20:01;12.00;10.25;6.00
72031;PMS5003;49185;42.320;23.198;2023-04-01T20:28:30;5.00;5.00;0.00
72031;PMS5003;49185;42.320;23.198;2023-04-01T20:30:55;47.75;38.50;24.00
72031;PMS5003;49185;42.320;23.198;2023-04-01T20:34:26;49.25;39.50;25.00
72031;PMS5003;49185;42.320;23.198;2023-04-01T20:36:36;42.50;35.00;23.00
72031;PMS5003;49185;42.320;23.198;2023-04-01T20:50:50;22.00;20.00;11.00
72031;PMS5003;49185;42.320;23.198;2023-04-01T21:04:07;18.25;18.00;9.00
72031;PMS5003;49185;42.320;23.198;2023-04-01T21:14:35;11.00;8.00;3.00
72031;PMS5003;49185;42.320;23.198;2023-04-01T21:17:30;11.00;9.75;5.00
72031;PMS5003;49185;42.320;23.198;2023-04-01T21:23:01;5.75;5.50;2.00
72031;PMS5003;49185;42.320;23.198;2023-04-01T21:28:48;3.00;3.00;1.00
72031;PMS5003;49185;42.320;23.198;2023-04-01T21:36:42;1.00;1.00;0.00
72031;PMS5003;49185;42.320;23.198;2023-04-01T22:03:29;9.75;9.75;5.25
72031;PMS5003;49185;42.320;23.198;2023-04-01T22:06:08;13.00;12.00;6.00
72031;PMS5003;49185;42.320;23.198;2023-04-01T22:14:26;17.00;15.75;7.00
72031;PMS5003;49185;42.320;23.198;2023-04-01T22:16:56;16.00;15.50;6.00
72031;PMS5003;49185;42.320;23.198;2023-04-01T22:22:29;5.50;5.25;3.00
72031;PMS5003;49185;42.320;23.198;2023-04-01T22:25:17;7.00;5.50;4.00
72031;PMS5003;49185;42.320;23.198;2023-04-01T22:28:07;8.75;7.00;4.00
72031;PMS5003;49185;42.320;23.198;2023-04-01T22:30:47;7.00;5.00;3.00
72031;PMS5003;49185;42.320;23.198;2023-04-01T22:33:19;8.25;6.50;4.00
72031;PMS5003;49185;42.320;23.198;2023-04-01T22:39:16;15.50;14.50;8.75
72031;PMS5003;49185;42.320;23.198;2023-04-01T22:44:38;19.00;18.00;9.00
72031;PMS5003;49185;42.320;23.198;2023-04-01T22:50:05;15.00;14.00;5.50
72031;PMS5003;49185;42.320;23.198;2023-04-01T22:52:52;11.75;9.75;3.00
72031;PMS5003;49185;42.320;23.198;2023-04-01T22:55:29;5.00;5.00;1.00
72031;PMS5003;49185;42.320;23.198;2023-04-01T22:58:11;7.00;6.00;1.00
72031;PMS5003;49185;42.320;23.198;2023-04-01T23:00:47;13.50;12.75;4.75
72031;PMS5003;49185;42.320;23.198;2023-04-01T23:03:26;17.75;16.75;8.75
72031;PMS5003;49185;42.320;23.198;2023-04-01T23:05:59;21.00;18.00;9.25
72031;PMS5003;49185;42.320;23.198;2023-04-01T23:08:48;14.00;12.00;4.50
72031;PMS5003;49185;42.320;23.198;2023-04-01T23:11:22;7.25;6.00;3.00
72031;PMS5003;49185;42.320;23.198;2023-04-01T23:16:36;5.25;4.25;2.00
72031;PMS5003;49185;42.320;23.198;2023-04-01T23:19:19;5.50;4.00;2.00
72031;PMS5003;49185;42.320;23.198;2023-04-01T23:24:40;4.00;4.00;2.00
72031;PMS5003;49185;42.320;23.198;2023-04-01T23:29:36;1.75;1.00;0.00
72031;PMS5003;49185;42.320;23.198;2023-04-01T23:32:03;3.00;2.00;0.00
72031;PMS5003;49185;42.320;23.198;2023-04-01T23:34:33;3.00;2.25;0.00
72031;PMS5003;49185;42.320;23.198;2023-04-01T23:37:12;3.00;3.00;0.00
72031;PMS5003;49185;42.320;23.198;2023-04-01T23:39:39;3.75;3.75;0.00
72031;PMS5003;49185;42.320;23.198;2023-04-01T23:44:44;3.00;3.00;0.00
72031;PMS5003;49185;42.320;23.198;2023-04-01T23:47:12;3.00;2.25;0.00
72031;PMS5003;49185;42.320;23.198;2023-04-01T23:49:44;3.00;2.75;0.00
72031;PMS5003;49185;42.320;23.198;2023-04-01T23:52:14;5.00;5.00;0.00
72031;PMS5003;49185;42.320;23.198;2023-04-01T23:54:53;2.00;2.00;0.00
72031;PMS5003;49185;42.320;23.198;2023-04-01T23:57:22;0.00;0.00;0.00
